sensor_id;sensor_type;location;lat;lon;timestamp;pressure;altitude;pressure_sealevel;temperature;humidity
59272;BME280;45043;51.068;7.026;2023-02-22T00:00:09;100391.22;;;3.84;67.97
59272;BME280;45043;51.068;7.026;2023-02-22T00:03:25;100387.09;;;3.81;68.36
59272;BME280;45043;51.068;7.026;2023-02-22T00:06:26;100382.13;;;3.78;67.83
59272;BME280;45043;51.068;7.026;2023-02-22T00:09:26;100382.31;;;3.77;68.48
59272;BME280;45043;51.068;7.026;2023-02-22T00:12:27;100385.09;;;3.75;68.19
59272;BME280;45043;51.068;7.026;2023-02-22T00:15:28;100379.97;;;3.73;68.26
59272;BME280;45043;51.068;7.026;2023-02-22T00:18:28;100376.84;;;3.70;68.06
59272;BME280;45043;51.068;7.026;2023-02-22T00:21:29;100371.84;;;3.59;68.36
59272;BME280;45043;51.068;7.026;2023-02-22T00:24:31;100371.47;;;3.54;68.48
59272;BME280;45043;51.068;7.026;2023-02-22T00:27:31;100362.91;;;3.34;68.47
59272;BME280;45043;51.068;7.026;2023-02-22T00:30:32;100362.31;;;3.22;68.57
59272;BME280;45043;51.068;7.026;2023-02-22T00:33:33;100364.59;;;3.17;69.14
59272;BME280;45043;51.068;7.026;2023-02-22T00:36:35;100360.00;;;3.19;68.88
59272;BME280;45043;51.068;7.026;2023-02-22T00:39:36;100360.31;;;3.16;68.62
59272;BME280;45043;51.068;7.026;2023-02-22T00:42:36;100362.47;;;3.03;68.45
59272;BME280;45043;51.068;7.026;2023-02-22T00:45:37;100361.50;;;3.04;68.81
59272;BME280;45043;51.068;7.026;2023-02-22T00:48:37;100359.16;;;3.00;68.62
59272;BME280;45043;51.068;7.026;2023-02-22T00:51:38;100355.59;;;3.02;68.97
59272;BME280;45043;51.068;7.026;2023-02-22T00:54:38;100345.38;;;2.98;68.59
59272;BME280;45043;51.068;7.026;2023-02-22T00:57:41;100350.94;;;2.95;69.09
59272;BME280;45043;51.068;7.026;2023-02-22T01:00:42;100342.53;;;2.92;68.63
59272;BME280;45043;51.068;7.026;2023-02-22T01:03:42;100347.03;;;2.99;68.90
59272;BME280;45043;51.068;7.026;2023-02-22T01:06:43;100347.91;;;3.08;68.96
59272;BME280;45043;51.068;7.026;2023-02-22T01:09:44;100337.94;;;3.12;68.35
59272;BME280;45043;51.068;7.026;2023-02-22T01:12:46;100330.91;;;3.12;69.05
59272;BME280;45043;51.068;7.026;2023-02-22T01:15:47;100331.28;;;3.17;68.59
59272;BME280;45043;51.068;7.026;2023-02-22T01:18:47;100321.59;;;3.18;68.54
59272;BME280;45043;51.068;7.026;2023-02-22T01:21:49;100330.69;;;3.23;68.63
59272;BME280;45043;51.068;7.026;2023-02-22T01:24:50;100325.94;;;3.27;68.20
59272;BME280;45043;51.068;7.026;2023-02-22T01:27:51;100317.41;;;3.25;68.06
59272;BME280;45043;51.068;7.026;2023-02-22T01:30:52;100307.56;;;3.27;67.96
59272;BME280;45043;51.068;7.026;2023-02-22T01:33:57;100320.72;;;3.27;68.22
59272;BME280;45043;51.068;7.026;2023-02-22T01:36:59;100311.16;;;3.26;67.96
59272;BME280;45043;51.068;7.026;2023-02-22T01:40:01;100302.09;;;3.20;68.15
59272;BME280;45043;51.068;7.026;2023-02-22T01:43:05;100312.09;;;3.17;68.24
59272;BME280;45043;51.068;7.026;2023-02-22T01:46:22;100300.38;;;3.11;68.06
59272;BME280;45043;51.068;7.026;2023-02-22T01:49:26;100295.94;;;3.12;67.88
59272;BME280;45043;51.068;7.026;2023-02-22T01:52:28;100296.28;;;3.09;68.08
59272;BME280;45043;51.068;7.026;2023-02-22T01:55:30;100286.06;;;3.06;67.60
59272;BME280;45043;51.068;7.026;2023-02-22T01:58:33;100292.91;;;2.98;67.59
59272;BME280;45043;51.068;7.026;2023-02-22T02:01:35;100286.69;;;2.99;67.54
59272;BME280;45043;51.068;7.026;2023-02-22T02:04:37;100276.63;;;2.95;67.10
59272;BME280;45043;51.068;7.026;2023-02-22T02:07:38;100280.31;;;2.84;67.17
59272;BME280;45043;51.068;7.026;2023-02-22T02:10:40;100279.63;;;2.82;67.47
59272;BME280;45043;51.068;7.026;2023-02-22T02:13:42;100279.63;;;2.82;68.01
59272;BME280;45043;51.068;7.026;2023-02-22T02:16:48;100274.38;;;2.82;67.80
59272;BME280;45043;51.068;7.026;2023-02-22T02:26:41;100264.81;;;2.73;67.51
59272;BME280;45043;51.068;7.026;2023-02-22T02:33:23;100258.56;;;2.74;67.25
59272;BME280;45043;51.068;7.026;2023-02-22T02:36:55;100258.22;;;2.69;66.99
59272;BME280;45043;51.068;7.026;2023-02-22T02:40:50;100251.00;;;2.71;67.42
59272;BME280;45043;51.068;7.026;2023-02-22T02:46:47;100248.47;;;2.79;66.72
59272;BME280;45043;51.068;7.026;2023-02-22T02:52:54;100248.25;;;2.72;66.60
59272;BME280;45043;51.068;7.026;2023-02-22T02:56:00;100245.75;;;2.71;66.43
59272;BME280;45043;51.068;7.026;2023-02-22T02:59:01;100243.22;;;2.61;66.50
59272;BME280;45043;51.068;7.026;2023-02-22T03:08:45;100243.81;;;2.37;66.44
59272;BME280;45043;51.068;7.026;2023-02-22T03:18:22;100237.44;;;2.22;66.77
59272;BME280;45043;51.068;7.026;2023-02-22T03:21:32;100243.50;;;2.22;67.35
59272;BME280;45043;51.068;7.026;2023-02-22T03:24:57;100235.03;;;2.28;66.71
59272;BME280;45043;51.068;7.026;2023-02-22T03:28:10;100240.25;;;2.38;66.68
59272;BME280;45043;51.068;7.026;2023-02-22T03:31:21;100240.31;;;2.46;66.39
59272;BME280;45043;51.068;7.026;2023-02-22T03:34:27;100233.50;;;2.54;66.46
59272;BME280;45043;51.068;7.026;2023-02-22T03:37:33;100240.38;;;2.55;66.13
59272;BME280;45043;51.068;7.026;2023-02-22T03:40:40;100243.97;;;2.54;66.45
59272;BME280;45043;51.068;7.026;2023-02-22T03:43:46;100238.56;;;2.55;65.99
59272;BME280;45043;51.068;7.026;2023-02-22T03:46:51;100232.50;;;2.55;66.22
59272;BME280;45043;51.068;7.026;2023-02-22T03:50:00;100231.53;;;2.56;66.19
59272;BME280;45043;51.068;7.026;2023-02-22T03:53:08;100227.28;;;2.55;65.95
59272;BME280;45043;51.068;7.026;2023-02-22T03:56:19;100226.59;;;2.52;66.00
59272;BME280;45043;51.068;7.026;2023-02-22T03:59:24;100228.25;;;2.54;66.46
59272;BME280;45043;51.068;7.026;2023-02-22T04:02:26;100230.72;;;2.55;66.43
59272;BME280;45043;51.068;7.026;2023-02-22T04:05:27;100228.84;;;2.47;65.66
59272;BME280;45043;51.068;7.026;2023-02-22T04:08:29;100231.75;;;2.44;66.30
59272;BME280;45043;51.068;7.026;2023-02-22T04:11:30;100230.13;;;2.43;66.31
59272;BME280;45043;51.068;7.026;2023-02-22T04:14:30;100227.50;;;2.43;66.31
59272;BME280;45043;51.068;7.026;2023-02-22T04:17:31;100230.13;;;2.43;65.60
59272;BME280;45043;51.068;7.026;2023-02-22T04:20:33;100219.78;;;2.42;65.57
59272;BME280;45043;51.068;7.026;2023-02-22T04:23:57;100224.34;;;2.40;65.64
59272;BME280;45043;51.068;7.026;2023-02-22T04:26:58;100227.25;;;2.37;65.48
59272;BME280;45043;51.068;7.026;2023-02-22T04:29:59;100228.53;;;2.33;65.54
59272;BME280;45043;51.068;7.026;2023-02-22T04:32:59;100225.09;;;2.32;65.36
59272;BME280;45043;51.068;7.026;2023-02-22T04:36:00;100229.34;;;2.33;65.21
59272;BME280;45043;51.068;7.026;2023-02-22T04:39:03;100229.00;;;2.28;64.35
59272;BME280;45043;51.068;7.026;2023-02-22T04:42:04;100224.41;;;2.12;65.00
59272;BME280;45043;51.068;7.026;2023-02-22T04:45:07;100222.91;;;2.10;64.78
59272;BME280;45043;51.068;7.026;2023-02-22T04:48:09;100226.56;;;2.17;64.96
59272;BME280;45043;51.068;7.026;2023-02-22T04:51:09;100227.09;;;2.20;64.96
59272;BME280;45043;51.068;7.026;2023-02-22T04:54:12;100225.97;;;2.23;64.62
59272;BME280;45043;51.068;7.026;2023-02-22T04:57:18;100220.44;;;2.26;64.36
59272;BME280;45043;51.068;7.026;2023-02-22T05:00:20;100213.25;;;2.28;64.23
59272;BME280;45043;51.068;7.026;2023-02-22T05:03:24;100207.72;;;2.31;64.15
59272;BME280;45043;51.068;7.026;2023-02-22T05:06:25;100199.47;;;2.26;64.02
59272;BME280;45043;51.068;7.026;2023-02-22T05:09:25;100202.47;;;2.31;63.90
59272;BME280;45043;51.068;7.026;2023-02-22T05:12:26;100204.13;;;2.32;63.62
59272;BME280;45043;51.068;7.026;2023-02-22T05:15:26;100205.75;;;2.33;64.10
59272;BME280;45043;51.068;7.026;2023-02-22T05:18:27;100202.78;;;2.28;63.52
59272;BME280;45043;51.068;7.026;2023-02-22T05:21:27;100191.75;;;2.24;63.87
59272;BME280;45043;51.068;7.026;2023-02-22T05:24:28;100197.53;;;2.28;63.90
59272;BME280;45043;51.068;7.026;2023-02-22T05:27:28;100193.94;;;2.29;63.82
59272;BME280;45043;51.068;7.026;2023-02-22T05:30:34;100197.81;;;2.25;63.62
59272;BME280;45043;51.068;7.026;2023-02-22T05:33:35;100194.50;;;2.23;63.56
59272;BME280;45043;51.068;7.026;2023-02-22T05:36:35;100198.41;;;2.19;63.77
59272;BME280;45043;51.068;7.026;2023-02-22T05:39:36;100185.09;;;2.30;64.55
59272;BME280;45043;51.068;7.026;2023-02-22T05:42:36;100181.81;;;2.46;64.51
59272;BME280;45043;51.068;7.026;2023-02-22T05:45:37;100176.63;;;2.54;64.08
59272;BME280;45043;51.068;7.026;2023-02-22T05:48:37;100177.38;;;2.64;63.70
59272;BME280;45043;51.068;7.026;2023-02-22T05:51:37;100168.47;;;2.57;62.68
59272;BME280;45043;51.068;7.026;2023-02-22T05:54:38;100170.63;;;2.44;63.30
59272;BME280;45043;51.068;7.026;2023-02-22T05:57:38;100167.56;;;2.48;63.61
59272;BME280;45043;51.068;7.026;2023-02-22T06:00:39;100161.13;;;2.61;63.91
59272;BME280;45043;51.068;7.026;2023-02-22T06:03:39;100159.72;;;2.74;64.02
59272;BME280;45043;51.068;7.026;2023-02-22T06:06:39;100166.81;;;2.82;63.33
59272;BME280;45043;51.068;7.026;2023-02-22T06:09:40;100163.28;;;2.91;64.09
59272;BME280;45043;51.068;7.026;2023-02-22T06:12:41;100161.03;;;2.96;63.68
59272;BME280;45043;51.068;7.026;2023-02-22T06:15:41;100155.69;;;3.06;63.72
59272;BME280;45043;51.068;7.026;2023-02-22T06:18:41;100147.97;;;3.05;63.08
59272;BME280;45043;51.068;7.026;2023-02-22T06:21:51;100159.72;;;3.27;63.65
59272;BME280;45043;51.068;7.026;2023-02-22T06:24:51;100163.22;;;3.35;63.47
59272;BME280;45043;51.068;7.026;2023-02-22T06:27:52;100160.38;;;3.29;63.19
59272;BME280;45043;51.068;7.026;2023-02-22T06:30:52;100153.59;;;3.18;62.42
59272;BME280;45043;51.068;7.026;2023-02-22T06:33:53;100149.22;;;3.00;62.88
59272;BME280;45043;51.068;7.026;2023-02-22T06:36:53;100163.28;;;2.91;63.14
59272;BME280;45043;51.068;7.026;2023-02-22T06:39:53;100164.78;;;2.94;63.75
59272;BME280;45043;51.068;7.026;2023-02-22T06:42:55;100161.66;;;3.16;64.23
59272;BME280;45043;51.068;7.026;2023-02-22T06:45:56;100154.34;;;3.36;64.46
59272;BME280;45043;51.068;7.026;2023-02-22T06:48:57;100164.44;;;3.49;63.63
59272;BME280;45043;51.068;7.026;2023-02-22T06:51:58;100159.66;;;3.44;62.61
59272;BME280;45043;51.068;7.026;2023-02-22T06:54:59;100159.47;;;3.38;63.01
59272;BME280;45043;51.068;7.026;2023-02-22T06:58:00;100158.66;;;3.37;62.91
59272;BME280;45043;51.068;7.026;2023-02-22T07:01:01;100150.16;;;3.43;62.73
59272;BME280;45043;51.068;7.026;2023-02-22T07:04:02;100146.56;;;3.53;62.93
59272;BME280;45043;51.068;7.026;2023-02-22T07:07:03;100147.06;;;3.56;63.08
59272;BME280;45043;51.068;7.026;2023-02-22T07:10:06;100152.19;;;3.58;62.69
59272;BME280;45043;51.068;7.026;2023-02-22T07:13:07;100149.91;;;3.71;62.60
59272;BME280;45043;51.068;7.026;2023-02-22T07:16:08;100143.84;;;3.79;62.32
59272;BME280;45043;51.068;7.026;2023-02-22T07:19:08;100130.91;;;3.85;62.60
59272;BME280;45043;51.068;7.026;2023-02-22T07:22:09;100134.72;;;3.99;62.28
59272;BME280;45043;51.068;7.026;2023-02-22T07:25:09;100129.97;;;4.03;63.15
59272;BME280;45043;51.068;7.026;2023-02-22T07:28:11;100137.22;;;4.25;62.76
59272;BME280;45043;51.068;7.026;2023-02-22T07:31:11;100141.97;;;4.38;62.55
59272;BME280;45043;51.068;7.026;2023-02-22T07:34:12;100139.34;;;4.38;62.39
59272;BME280;45043;51.068;7.026;2023-02-22T07:37:13;100134.59;;;4.33;62.41
59272;BME280;45043;51.068;7.026;2023-02-22T07:40:15;100135.91;;;4.37;62.54
59272;BME280;45043;51.068;7.026;2023-02-22T07:43:22;100134.25;;;4.36;62.26
59272;BME280;45043;51.068;7.026;2023-02-22T07:46:23;100131.81;;;4.35;62.46
59272;BME280;45043;51.068;7.026;2023-02-22T07:49:24;100136.38;;;4.41;62.93
59272;BME280;45043;51.068;7.026;2023-02-22T07:52:24;100133.44;;;4.52;62.94
59272;BME280;45043;51.068;7.026;2023-02-22T07:55:27;100127.69;;;4.65;62.26
59272;BME280;45043;51.068;7.026;2023-02-22T07:58:30;100127.97;;;4.78;62.28
59272;BME280;45043;51.068;7.026;2023-02-22T08:01:31;100126.66;;;4.82;62.19
59272;BME280;45043;51.068;7.026;2023-02-22T08:04:31;100122.72;;;4.86;62.43
59272;BME280;45043;51.068;7.026;2023-02-22T08:07:32;100120.41;;;4.91;62.39
59272;BME280;45043;51.068;7.026;2023-02-22T08:10:33;100117.09;;;4.98;62.54
59272;BME280;45043;51.068;7.026;2023-02-22T08:13:34;100122.66;;;5.03;62.57
59272;BME280;45043;51.068;7.026;2023-02-22T08:16:36;100115.75;;;5.10;62.56
59272;BME280;45043;51.068;7.026;2023-02-22T08:19:36;100114.06;;;5.17;62.56
59272;BME280;45043;51.068;7.026;2023-02-22T08:22:38;100116.69;;;5.17;62.95
59272;BME280;45043;51.068;7.026;2023-02-22T08:25:39;100105.84;;;5.20;63.10
59272;BME280;45043;51.068;7.026;2023-02-22T08:28:40;100115.69;;;5.18;63.05
59272;BME280;45043;51.068;7.026;2023-02-22T08:31:40;100115.03;;;5.24;63.32
59272;BME280;45043;51.068;7.026;2023-02-22T08:34:41;100110.09;;;5.29;63.29
59272;BME280;45043;51.068;7.026;2023-02-22T08:37:43;100102.88;;;5.31;63.46
59272;BME280;45043;51.068;7.026;2023-02-22T08:40:44;100102.34;;;5.36;63.48
59272;BME280;45043;51.068;7.026;2023-02-22T08:43:44;100103.44;;;5.41;63.78
59272;BME280;45043;51.068;7.026;2023-02-22T08:46:45;100099.97;;;5.49;63.60
59272;BME280;45043;51.068;7.026;2023-02-22T08:49:45;100104.69;;;5.62;63.63
59272;BME280;45043;51.068;7.026;2023-02-22T08:52:46;100099.66;;;5.75;63.72
59272;BME280;45043;51.068;7.026;2023-02-22T08:55:46;100101.84;;;5.95;63.36
59272;BME280;45043;51.068;7.026;2023-02-22T08:58:47;100087.97;;;6.24;62.90
59272;BME280;45043;51.068;7.026;2023-02-22T09:01:47;100078.00;;;6.49;62.26
59272;BME280;45043;51.068;7.026;2023-02-22T09:04:48;100090.78;;;6.75;61.44
59272;BME280;45043;51.068;7.026;2023-02-22T09:07:48;100081.06;;;6.90;61.05
59272;BME280;45043;51.068;7.026;2023-02-22T09:10:50;100081.63;;;7.00;60.49
59272;BME280;45043;51.068;7.026;2023-02-22T09:13:50;100075.63;;;7.06;59.83
59272;BME280;45043;51.068;7.026;2023-02-22T09:16:51;100078.88;;;7.23;59.99
59272;BME280;45043;51.068;7.026;2023-02-22T09:19:51;100071.31;;;7.35;59.29
59272;BME280;45043;51.068;7.026;2023-02-22T09:22:52;100064.91;;;7.44;58.96
59272;BME280;45043;51.068;7.026;2023-02-22T09:25:53;100062.50;;;7.49;58.34
59272;BME280;45043;51.068;7.026;2023-02-22T09:28:53;100066.97;;;7.49;58.10
59272;BME280;45043;51.068;7.026;2023-02-22T09:31:55;100058.06;;;7.50;57.65
59272;BME280;45043;51.068;7.026;2023-02-22T09:34:55;100060.13;;;7.54;57.38
59272;BME280;45043;51.068;7.026;2023-02-22T09:37:58;100056.19;;;7.65;57.01
59272;BME280;45043;51.068;7.026;2023-02-22T09:41:10;100067.38;;;7.67;56.48
59272;BME280;45043;51.068;7.026;2023-02-22T09:44:15;100058.56;;;7.60;56.42
59272;BME280;45043;51.068;7.026;2023-02-22T09:47:22;100067.25;;;7.75;56.58
59272;BME280;45043;51.068;7.026;2023-02-22T09:50:41;100070.69;;;7.91;56.04
59272;BME280;45043;51.068;7.026;2023-02-22T09:53:47;100071.06;;;8.09;55.90
59272;BME280;45043;51.068;7.026;2023-02-22T09:56:52;100070.00;;;8.25;55.56
59272;BME280;45043;51.068;7.026;2023-02-22T10:00:14;100067.78;;;8.28;55.45
59272;BME280;45043;51.068;7.026;2023-02-22T10:03:35;100070.31;;;8.37;55.25
59272;BME280;45043;51.068;7.026;2023-02-22T10:06:47;100073.25;;;8.48;55.24
59272;BME280;45043;51.068;7.026;2023-02-22T10:09:53;100066.47;;;8.39;55.36
59272;BME280;45043;51.068;7.026;2023-02-22T10:13:09;100071.56;;;8.41;55.40
59272;BME280;45043;51.068;7.026;2023-02-22T10:16:16;100054.97;;;8.53;54.97
59272;BME280;45043;51.068;7.026;2023-02-22T10:26:19;100058.91;;;8.99;54.25
59272;BME280;45043;51.068;7.026;2023-02-22T10:29:41;100051.63;;;9.14;53.73
59272;BME280;45043;51.068;7.026;2023-02-22T10:32:45;100046.34;;;9.21;53.30
59272;BME280;45043;51.068;7.026;2023-02-22T10:35:47;100039.41;;;9.13;53.00
59272;BME280;45043;51.068;7.026;2023-02-22T10:38:59;100042.16;;;8.92;52.44
59272;BME280;45043;51.068;7.026;2023-02-22T10:42:04;100035.59;;;8.88;52.32
59272;BME280;45043;51.068;7.026;2023-02-22T10:48:18;100030.59;;;8.71;51.76
59272;BME280;45043;51.068;7.026;2023-02-22T10:51:20;100029.44;;;8.80;52.32
59272;BME280;45043;51.068;7.026;2023-02-22T10:54:25;100026.06;;;9.00;51.54
59272;BME280;45043;51.068;7.026;2023-02-22T10:57:31;100029.19;;;9.10;51.12
59272;BME280;45043;51.068;7.026;2023-02-22T11:00:38;100021.03;;;9.12;51.00
59272;BME280;45043;51.068;7.026;2023-02-22T11:03:38;100019.44;;;9.17;50.52
59272;BME280;45043;51.068;7.026;2023-02-22T11:07:05;100022.28;;;9.22;49.92
59272;BME280;45043;51.068;7.026;2023-02-22T11:10:07;100006.00;;;9.25;49.81
59272;BME280;45043;51.068;7.026;2023-02-22T11:13:28;100016.78;;;9.98;47.52
59272;BME280;45043;51.068;7.026;2023-02-22T11:16:36;100012.22;;;9.59;48.73
59272;BME280;45043;51.068;7.026;2023-02-22T11:19:45;100005.91;;;9.60;48.69
59272;BME280;45043;51.068;7.026;2023-02-22T11:22:49;100003.47;;;9.59;48.71
59272;BME280;45043;51.068;7.026;2023-02-22T11:26:00;100008.16;;;9.63;48.91
59272;BME280;45043;51.068;7.026;2023-02-22T11:29:09;100000.44;;;9.68;48.35
59272;BME280;45043;51.068;7.026;2023-02-22T11:32:17;99999.00;;;9.66;48.17
59272;BME280;45043;51.068;7.026;2023-02-22T11:35:38;99991.22;;;9.71;48.09
59272;BME280;45043;51.068;7.026;2023-02-22T11:38:52;99992.66;;;9.87;47.94
59272;BME280;45043;51.068;7.026;2023-02-22T11:41:56;99986.97;;;10.10;48.06
59272;BME280;45043;51.068;7.026;2023-02-22T11:45:16;99980.81;;;10.16;47.27
59272;BME280;45043;51.068;7.026;2023-02-22T11:48:22;99971.03;;;10.16;47.18
59272;BME280;45043;51.068;7.026;2023-02-22T11:51:55;99980.19;;;10.34;47.25
59272;BME280;45043;51.068;7.026;2023-02-22T11:55:23;99973.81;;;10.55;46.75
59272;BME280;45043;51.068;7.026;2023-02-22T12:14:47;99951.03;;;10.92;44.05
59272;BME280;45043;51.068;7.026;2023-02-22T12:18:25;99951.56;;;11.07;44.15
59272;BME280;45043;51.068;7.026;2023-02-22T12:21:30;99955.97;;;11.27;43.62
59272;BME280;45043;51.068;7.026;2023-02-22T12:24:37;99944.47;;;11.33;43.05
59272;BME280;45043;51.068;7.026;2023-02-22T12:31:00;99953.66;;;11.37;42.96
59272;BME280;45043;51.068;7.026;2023-02-22T12:34:27;99954.34;;;11.26;42.66
59272;BME280;45043;51.068;7.026;2023-02-22T12:37:37;99951.03;;;11.30;42.92
59272;BME280;45043;51.068;7.026;2023-02-22T12:41:04;99953.03;;;11.35;42.95
59272;BME280;45043;51.068;7.026;2023-02-22T12:44:19;99951.09;;;11.55;42.32
59272;BME280;45043;51.068;7.026;2023-02-22T12:47:28;99954.84;;;11.73;42.41
59272;BME280;45043;51.068;7.026;2023-02-22T12:50:30;99959.31;;;11.79;42.60
59272;BME280;45043;51.068;7.026;2023-02-22T12:53:34;99958.13;;;11.68;41.79
59272;BME280;45043;51.068;7.026;2023-02-22T12:56:42;99950.22;;;11.61;42.17
59272;BME280;45043;51.068;7.026;2023-02-22T12:59:50;99946.69;;;11.67;41.75
59272;BME280;45043;51.068;7.026;2023-02-22T13:02:55;99953.63;;;11.68;41.32
59272;BME280;45043;51.068;7.026;2023-02-22T13:09:48;99953.31;;;11.58;42.08
59272;BME280;45043;51.068;7.026;2023-02-22T13:16:35;99942.19;;;11.68;42.64
59272;BME280;45043;51.068;7.026;2023-02-22T13:23:04;99942.50;;;11.85;42.32
59272;BME280;45043;51.068;7.026;2023-02-22T13:29:24;99938.03;;;11.79;42.42
59272;BME280;45043;51.068;7.026;2023-02-22T13:35:40;99943.56;;;12.02;41.68
59272;BME280;45043;51.068;7.026;2023-02-22T13:45:45;99939.56;;;11.93;41.45
59272;BME280;45043;51.068;7.026;2023-02-22T13:52:11;99947.22;;;11.83;41.51
59272;BME280;45043;51.068;7.026;2023-02-22T13:55:17;99951.94;;;11.81;41.69
59272;BME280;45043;51.068;7.026;2023-02-22T13:58:19;99943.72;;;11.82;41.59
59272;BME280;45043;51.068;7.026;2023-02-22T14:01:36;99944.53;;;11.83;41.52
59272;BME280;45043;51.068;7.026;2023-02-22T14:04:40;99939.97;;;11.90;41.63
59272;BME280;45043;51.068;7.026;2023-02-22T14:07:46;99942.69;;;12.08;41.79
59272;BME280;45043;51.068;7.026;2023-02-22T14:17:23;99945.38;;;12.45;41.10
59272;BME280;45043;51.068;7.026;2023-02-22T14:20:35;99943.91;;;12.67;40.86
59272;BME280;45043;51.068;7.026;2023-02-22T14:23:38;99947.63;;;12.85;40.62
59272;BME280;45043;51.068;7.026;2023-02-22T14:26:42;99943.03;;;12.92;40.38
59272;BME280;45043;51.068;7.026;2023-02-22T14:29:57;99939.31;;;12.93;40.50
59272;BME280;45043;51.068;7.026;2023-02-22T14:32:59;99937.63;;;12.99;40.38
59272;BME280;45043;51.068;7.026;2023-02-22T14:36:01;99925.34;;;13.09;40.26
59272;BME280;45043;51.068;7.026;2023-02-22T14:39:15;99930.38;;;13.18;39.99
59272;BME280;45043;51.068;7.026;2023-02-22T14:45:27;99932.78;;;13.49;39.69
59272;BME280;45043;51.068;7.026;2023-02-22T14:48:35;99932.88;;;13.73;39.06
59272;BME280;45043;51.068;7.026;2023-02-22T14:51:42;99932.28;;;13.94;39.20
59272;BME280;45043;51.068;7.026;2023-02-22T14:54:53;99931.25;;;14.19;38.43
59272;BME280;45043;51.068;7.026;2023-02-22T15:04:23;99920.00;;;14.57;37.51
59272;BME280;45043;51.068;7.026;2023-02-22T15:07:30;99930.34;;;14.77;37.45
59272;BME280;45043;51.068;7.026;2023-02-22T15:10:46;99936.38;;;14.72;37.13
59272;BME280;45043;51.068;7.026;2023-02-22T15:13:52;99926.41;;;14.68;37.60
59272;BME280;45043;51.068;7.026;2023-02-22T15:17:11;99929.56;;;14.65;37.58
59272;BME280;45043;51.068;7.026;2023-02-22T15:20:15;99921.78;;;14.63;37.77
59272;BME280;45043;51.068;7.026;2023-02-22T15:23:16;99920.38;;;14.49;37.91
59272;BME280;45043;51.068;7.026;2023-02-22T15:26:33;99915.63;;;14.39;37.91
59272;BME280;45043;51.068;7.026;2023-02-22T15:29:43;99924.59;;;14.33;37.93
59272;BME280;45043;51.068;7.026;2023-02-22T15:32:44;99926.94;;;14.18;37.99
59272;BME280;45043;51.068;7.026;2023-02-22T15:35:53;99930.09;;;14.03;38.25
59272;BME280;45043;51.068;7.026;2023-02-22T15:38:54;99938.31;;;13.90;38.65
59272;BME280;45043;51.068;7.026;2023-02-22T15:42:13;99933.09;;;13.83;38.61
59272;BME280;45043;51.068;7.026;2023-02-22T15:45:21;99940.88;;;13.73;39.03
59272;BME280;45043;51.068;7.026;2023-02-22T15:48:24;99934.19;;;13.63;39.32
59272;BME280;45043;51.068;7.026;2023-02-22T15:51:28;99943.09;;;13.46;39.30
59272;BME280;45043;51.068;7.026;2023-02-22T15:54:36;99945.59;;;13.29;39.74
59272;BME280;45043;51.068;7.026;2023-02-22T15:57:37;99944.72;;;13.17;39.84
59272;BME280;45043;51.068;7.026;2023-02-22T16:00:43;99943.75;;;12.99;40.14
59272;BME280;45043;51.068;7.026;2023-02-22T16:03:50;99946.59;;;12.86;40.44
59272;BME280;45043;51.068;7.026;2023-02-22T16:07:02;99945.28;;;12.77;40.67
59272;BME280;45043;51.068;7.026;2023-02-22T16:10:04;99945.31;;;12.70;41.05
59272;BME280;45043;51.068;7.026;2023-02-22T16:13:18;99939.75;;;12.53;41.26
59272;BME280;45043;51.068;7.026;2023-02-22T16:16:23;99939.47;;;12.43;42.01
59272;BME280;45043;51.068;7.026;2023-02-22T16:19:31;99946.50;;;12.37;41.92
59272;BME280;45043;51.068;7.026;2023-02-22T16:22:34;99943.31;;;12.29;42.29
59272;BME280;45043;51.068;7.026;2023-02-22T16:25:35;99947.00;;;12.28;42.00
59272;BME280;45043;51.068;7.026;2023-02-22T16:28:46;99948.31;;;12.18;42.60
59272;BME280;45043;51.068;7.026;2023-02-22T16:31:52;99944.91;;;12.11;42.67
59272;BME280;45043;51.068;7.026;2023-02-22T16:34:53;99953.72;;;12.12;43.14
59272;BME280;45043;51.068;7.026;2023-02-22T16:37:58;99947.44;;;12.06;43.26
59272;BME280;45043;51.068;7.026;2023-02-22T16:40:59;99961.59;;;12.00;43.09
59272;BME280;45043;51.068;7.026;2023-02-22T16:44:00;99963.72;;;11.91;43.99
59272;BME280;45043;51.068;7.026;2023-02-22T16:47:00;99961.69;;;11.87;44.06
59272;BME280;45043;51.068;7.026;2023-02-22T16:50:01;99968.34;;;11.78;44.25
59272;BME280;45043;51.068;7.026;2023-02-22T16:53:01;99963.25;;;11.69;44.17
59272;BME280;45043;51.068;7.026;2023-02-22T16:56:04;99965.16;;;11.62;44.34
59272;BME280;45043;51.068;7.026;2023-02-22T16:59:11;99962.75;;;11.54;44.74
59272;BME280;45043;51.068;7.026;2023-02-22T17:02:14;99970.56;;;11.49;45.12
59272;BME280;45043;51.068;7.026;2023-02-22T17:05:15;99970.97;;;11.46;45.17
59272;BME280;45043;51.068;7.026;2023-02-22T17:08:16;99975.31;;;11.40;44.93
59272;BME280;45043;51.068;7.026;2023-02-22T17:11:17;99982.09;;;11.36;45.29
59272;BME280;45043;51.068;7.026;2023-02-22T17:14:21;99979.88;;;11.33;45.54
59272;BME280;45043;51.068;7.026;2023-02-22T17:17:22;99986.75;;;11.09;45.35
59272;BME280;45043;51.068;7.026;2023-02-22T17:20:23;99992.16;;;10.83;47.28
59272;BME280;45043;51.068;7.026;2023-02-22T17:23:30;99977.28;;;10.55;48.02
59272;BME280;45043;51.068;7.026;2023-02-22T17:26:30;99992.84;;;10.52;48.33
59272;BME280;45043;51.068;7.026;2023-02-22T17:29:31;99998.16;;;10.45;48.62
59272;BME280;45043;51.068;7.026;2023-02-22T17:32:31;99998.38;;;10.37;48.99
59272;BME280;45043;51.068;7.026;2023-02-22T17:35:37;99992.66;;;10.27;49.43
59272;BME280;45043;51.068;7.026;2023-02-22T17:38:38;99999.22;;;10.24;49.55
59272;BME280;45043;51.068;7.026;2023-02-22T17:41:40;100010.22;;;10.28;49.81
59272;BME280;45043;51.068;7.026;2023-02-22T17:44:41;100008.00;;;10.24;50.01
59272;BME280;45043;51.068;7.026;2023-02-22T17:47:42;100009.00;;;10.23;50.12
59272;BME280;45043;51.068;7.026;2023-02-22T17:50:44;100012.50;;;10.17;50.30
59272;BME280;45043;51.068;7.026;2023-02-22T17:53:45;100013.09;;;10.06;50.85
59272;BME280;45043;51.068;7.026;2023-02-22T17:56:46;100013.91;;;10.07;50.69
59272;BME280;45043;51.068;7.026;2023-02-22T17:59:46;100005.16;;;10.06;50.76